Bakerville, Wisconsin
Current Conditions -  °F | °C
As of 4:54 AM on Saturday 25 Oct 2014 (Local Time) from KMFI Reporting Station
Clear Clear  
Wind Chill: 50°   Ceiling: Unl
Heat Index: 50°   Visibility: 7mi
Dew Point: 47°   Wind: 9mph
Humidity: 89%   Direction: 280°W
Pressure: 29.87"   Gusts: NA
Location:  44.6413°N, 90.1945°W
Report Text: KMFI 250954Z AUTO 28008KT 7SM CLR 10/08 A2987 RMK AO2 SLP118 T01000083
Loading
Personal Weather Stations






























Interactive Weather Map
Tropical Storm Tracking
New forecast layout! Learn more

10-Day Weather Forecast

Advertisements
Track Severe Weather on mobile